sensor_id;sensor_type;location;lat;lon;timestamp;temperature;humidity
20141;DHT22;10231;47.702;9.826;2023-04-03T00:00:56;5.70;99.90
20141;DHT22;10231;47.702;9.826;2023-04-03T00:03:22;5.60;99.90
20141;DHT22;10231;47.702;9.826;2023-04-03T00:05:47;5.60;99.90
20141;DHT22;10231;47.702;9.826;2023-04-03T00:08:13;5.60;99.90
20141;DHT22;10231;47.702;9.826;2023-04-03T00:10:39;5.50;99.90
20141;DHT22;10231;47.702;9.826;2023-04-03T00:13:07;5.50;99.90
20141;DHT22;10231;47.702;9.826;2023-04-03T00:15:34;5.40;99.90
20141;DHT22;10231;47.702;9.826;2023-04-03T00:18:00;5.30;99.90
20141;DHT22;10231;47.702;9.826;2023-04-03T00:20:27;5.30;99.90
20141;DHT22;10231;47.702;9.826;2023-04-03T00:22:53;5.20;99.90
20141;DHT22;10231;47.702;9.826;2023-04-03T00:25:19;5.20;99.90
20141;DHT22;10231;47.702;9.826;2023-04-03T00:27:45;5.10;99.90
20141;DHT22;10231;47.702;9.826;2023-04-03T00:30:13;5.10;99.90
20141;DHT22;10231;47.702;9.826;2023-04-03T00:32:39;5.00;99.90
20141;DHT22;10231;47.702;9.826;2023-04-03T00:35:05;5.00;99.90
20141;DHT22;10231;47.702;9.826;2023-04-03T00:37:31;5.00;99.90
20141;DHT22;10231;47.702;9.826;2023-04-03T00:39:56;4.90;99.90
20141;DHT22;10231;47.702;9.826;2023-04-03T00:42:22;4.80;99.90
20141;DHT22;10231;47.702;9.826;2023-04-03T00:47:16;4.80;99.90
20141;DHT22;10231;47.702;9.826;2023-04-03T00:49:43;4.60;99.90
20141;DHT22;10231;47.702;9.826;2023-04-03T00:52:13;4.60;99.90
20141;DHT22;10231;47.702;9.826;2023-04-03T00:54:41;4.60;99.90
20141;DHT22;10231;47.702;9.826;2023-04-03T00:57:08;4.40;99.90
20141;DHT22;10231;47.702;9.826;2023-04-03T00:59:38;4.40;99.90
20141;DHT22;10231;47.702;9.826;2023-04-03T01:02:05;4.50;99.90
20141;DHT22;10231;47.702;9.826;2023-04-03T01:04:39;4.40;99.90
20141;DHT22;10231;47.702;9.826;2023-04-03T01:07:08;4.30;99.90
20141;DHT22;10231;47.702;9.826;2023-04-03T01:09:35;4.30;99.90
20141;DHT22;10231;47.702;9.826;2023-04-03T01:12:19;4.30;99.90
20141;DHT22;10231;47.702;9.826;2023-04-03T01:14:45;4.20;99.90
20141;DHT22;10231;47.702;9.826;2023-04-03T01:17:47;4.10;99.90
20141;DHT22;10231;47.702;9.826;2023-04-03T01:25:36;4.00;99.90
20141;DHT22;10231;47.702;9.826;2023-04-03T01:28:07;4.00;99.90
20141;DHT22;10231;47.702;9.826;2023-04-03T01:33:20;3.90;99.90
20141;DHT22;10231;47.702;9.826;2023-04-03T01:35:46;3.90;99.90
20141;DHT22;10231;47.702;9.826;2023-04-03T01:38:11;4.00;99.90
20141;DHT22;10231;47.702;9.826;2023-04-03T01:40:37;3.90;99.90
20141;DHT22;10231;47.702;9.826;2023-04-03T01:43:02;3.90;99.90
20141;DHT22;10231;47.702;9.826;2023-04-03T01:45:28;3.90;99.90
20141;DHT22;10231;47.702;9.826;2023-04-03T01:47:54;3.90;99.90
20141;DHT22;10231;47.702;9.826;2023-04-03T01:50:19;3.80;99.90
20141;DHT22;10231;47.702;9.826;2023-04-03T01:52:45;3.80;99.90
20141;DHT22;10231;47.702;9.826;2023-04-03T01:55:11;3.70;99.90
20141;DHT22;10231;47.702;9.826;2023-04-03T01:57:36;3.70;99.90
20141;DHT22;10231;47.702;9.826;2023-04-03T02:00:02;3.70;99.90
20141;DHT22;10231;47.702;9.826;2023-04-03T02:02:28;3.70;99.90
20141;DHT22;10231;47.702;9.826;2023-04-03T02:04:53;3.60;99.90
20141;DHT22;10231;47.702;9.826;2023-04-03T02:07:20;3.60;99.90
20141;DHT22;10231;47.702;9.826;2023-04-03T02:09:45;3.50;99.90
20141;DHT22;10231;47.702;9.826;2023-04-03T02:12:11;3.40;99.90
20141;DHT22;10231;47.702;9.826;2023-04-03T02:14:36;3.40;99.90
20141;DHT22;10231;47.702;9.826;2023-04-03T02:17:02;3.40;99.90
20141;DHT22;10231;47.702;9.826;2023-04-03T02:19:31;3.50;99.90
20141;DHT22;10231;47.702;9.826;2023-04-03T02:21:56;3.40;99.90
20141;DHT22;10231;47.702;9.826;2023-04-03T02:24:22;3.40;99.90
20141;DHT22;10231;47.702;9.826;2023-04-03T02:26:47;3.40;99.90
20141;DHT22;10231;47.702;9.826;2023-04-03T02:29:13;3.40;99.90
20141;DHT22;10231;47.702;9.826;2023-04-03T02:31:38;3.30;99.90
20141;DHT22;10231;47.702;9.826;2023-04-03T02:34:04;3.30;99.90
20141;DHT22;10231;47.702;9.826;2023-04-03T02:36:29;3.40;99.90
20141;DHT22;10231;47.702;9.826;2023-04-03T02:38:55;3.30;99.90
20141;DHT22;10231;47.702;9.826;2023-04-03T02:41:20;3.20;99.90
20141;DHT22;10231;47.702;9.826;2023-04-03T02:43:46;3.20;99.90
20141;DHT22;10231;47.702;9.826;2023-04-03T02:46:12;3.20;99.90
20141;DHT22;10231;47.702;9.826;2023-04-03T02:48:40;3.20;99.90
20141;DHT22;10231;47.702;9.826;2023-04-03T02:51:05;3.10;99.90
20141;DHT22;10231;47.702;9.826;2023-04-03T02:53:31;3.00;99.90
20141;DHT22;10231;47.702;9.826;2023-04-03T02:55:57;2.90;99.90
20141;DHT22;10231;47.702;9.826;2023-04-03T02:58:22;2.90;99.90
20141;DHT22;10231;47.702;9.826;2023-04-03T03:00:48;2.80;99.90
20141;DHT22;10231;47.702;9.826;2023-04-03T03:03:13;2.90;99.90
20141;DHT22;10231;47.702;9.826;2023-04-03T03:05:40;2.90;99.90
20141;DHT22;10231;47.702;9.826;2023-04-03T03:08:05;2.90;99.90
20141;DHT22;10231;47.702;9.826;2023-04-03T03:10:31;2.90;99.90
20141;DHT22;10231;47.702;9.826;2023-04-03T03:12:56;2.90;99.90
20141;DHT22;10231;47.702;9.826;2023-04-03T03:15:22;2.80;99.90
20141;DHT22;10231;47.702;9.826;2023-04-03T03:17:47;2.80;99.90
20141;DHT22;10231;47.702;9.826;2023-04-03T03:20:13;2.90;99.90
20141;DHT22;10231;47.702;9.826;2023-04-03T03:22:42;2.90;99.90
20141;DHT22;10231;47.702;9.826;2023-04-03T03:25:07;2.80;99.90
20141;DHT22;10231;47.702;9.826;2023-04-03T03:27:33;2.80;99.90
20141;DHT22;10231;47.702;9.826;2023-04-03T03:29:59;2.70;99.90
20141;DHT22;10231;47.702;9.826;2023-04-03T03:32:25;2.80;99.90
20141;DHT22;10231;47.702;9.826;2023-04-03T03:34:50;2.80;99.90
20141;DHT22;10231;47.702;9.826;2023-04-03T03:37:16;2.90;99.90
20141;DHT22;10231;47.702;9.826;2023-04-03T03:39:41;2.90;99.90
20141;DHT22;10231;47.702;9.826;2023-04-03T03:42:07;2.90;99.90
20141;DHT22;10231;47.702;9.826;2023-04-03T03:44:32;2.90;99.90
20141;DHT22;10231;47.702;9.826;2023-04-03T03:46:58;3.00;99.90
20141;DHT22;10231;47.702;9.826;2023-04-03T03:49:24;3.00;99.90
20141;DHT22;10231;47.702;9.826;2023-04-03T03:51:49;3.00;99.90
20141;DHT22;10231;47.702;9.826;2023-04-03T03:54:16;3.00;99.90
20141;DHT22;10231;47.702;9.826;2023-04-03T03:56:41;3.00;99.90
20141;DHT22;10231;47.702;9.826;2023-04-03T03:59:07;3.00;99.90
20141;DHT22;10231;47.702;9.826;2023-04-03T04:01:33;3.00;99.90
20141;DHT22;10231;47.702;9.826;2023-04-03T04:03:58;3.20;99.90
20141;DHT22;10231;47.702;9.826;2023-04-03T04:06:24;3.20;99.90
20141;DHT22;10231;47.702;9.826;2023-04-03T04:08:50;3.30;99.90
20141;DHT22;10231;47.702;9.826;2023-04-03T04:11:15;3.30;99.90
20141;DHT22;10231;47.702;9.826;2023-04-03T04:13:41;3.30;99.90
20141;DHT22;10231;47.702;9.826;2023-04-03T04:16:07;3.40;99.90
20141;DHT22;10231;47.702;9.826;2023-04-03T04:18:33;3.40;99.90
20141;DHT22;10231;47.702;9.826;2023-04-03T04:20:58;3.30;99.90
20141;DHT22;10231;47.702;9.826;2023-04-03T04:23:24;3.40;99.90
20141;DHT22;10231;47.702;9.826;2023-04-03T04:25:50;3.40;99.90
20141;DHT22;10231;47.702;9.826;2023-04-03T04:28:16;3.40;99.90
20141;DHT22;10231;47.702;9.826;2023-04-03T04:30:42;3.40;99.90
20141;DHT22;10231;47.702;9.826;2023-04-03T04:33:08;3.40;99.90
20141;DHT22;10231;47.702;9.826;2023-04-03T04:35:33;3.40;99.90
20141;DHT22;10231;47.702;9.826;2023-04-03T04:37:59;3.40;99.90
20141;DHT22;10231;47.702;9.826;2023-04-03T04:40:26;3.40;99.90
20141;DHT22;10231;47.702;9.826;2023-04-03T04:42:51;3.50;99.90
20141;DHT22;10231;47.702;9.826;2023-04-03T04:45:17;3.50;99.90
20141;DHT22;10231;47.702;9.826;2023-04-03T04:47:43;3.50;99.90
20141;DHT22;10231;47.702;9.826;2023-04-03T04:50:09;3.40;99.90
20141;DHT22;10231;47.702;9.826;2023-04-03T04:52:35;3.50;99.90
20141;DHT22;10231;47.702;9.826;2023-04-03T04:55:01;3.50;99.90
20141;DHT22;10231;47.702;9.826;2023-04-03T04:57:26;3.50;99.90
20141;DHT22;10231;47.702;9.826;2023-04-03T04:59:52;3.50;99.90
20141;DHT22;10231;47.702;9.826;2023-04-03T05:02:17;3.50;99.90
20141;DHT22;10231;47.702;9.826;2023-04-03T05:04:43;3.50;99.90
20141;DHT22;10231;47.702;9.826;2023-04-03T05:07:09;3.50;99.90
20141;DHT22;10231;47.702;9.826;2023-04-03T05:09:34;3.50;99.90
20141;DHT22;10231;47.702;9.826;2023-04-03T05:12:00;3.50;99.90
20141;DHT22;10231;47.702;9.826;2023-04-03T05:14:25;3.60;99.90
20141;DHT22;10231;47.702;9.826;2023-04-03T05:16:51;3.60;99.90
20141;DHT22;10231;47.702;9.826;2023-04-03T05:19:21;3.60;99.90
20141;DHT22;10231;47.702;9.826;2023-04-03T05:21:47;3.50;99.90
20141;DHT22;10231;47.702;9.826;2023-04-03T05:24:13;3.50;99.90
20141;DHT22;10231;47.702;9.826;2023-04-03T05:26:38;3.50;99.90
20141;DHT22;10231;47.702;9.826;2023-04-03T05:29:04;3.50;99.90
20141;DHT22;10231;47.702;9.826;2023-04-03T05:31:30;3.50;99.90
20141;DHT22;10231;47.702;9.826;2023-04-03T05:33:56;3.60;99.90
20141;DHT22;10231;47.702;9.826;2023-04-03T05:36:21;3.60;99.90
20141;DHT22;10231;47.702;9.826;2023-04-03T05:38:47;3.60;99.90
20141;DHT22;10231;47.702;9.826;2023-04-03T05:41:14;3.60;99.90
20141;DHT22;10231;47.702;9.826;2023-04-03T05:43:40;3.60;99.90
20141;DHT22;10231;47.702;9.826;2023-04-03T05:46:13;3.60;99.90
20141;DHT22;10231;47.702;9.826;2023-04-03T05:48:39;3.60;99.90
20141;DHT22;10231;47.702;9.826;2023-04-03T05:51:06;3.70;99.90
20141;DHT22;10231;47.702;9.826;2023-04-03T05:53:35;3.60;99.90
20141;DHT22;10231;47.702;9.826;2023-04-03T05:56:04;3.70;99.90
20141;DHT22;10231;47.702;9.826;2023-04-03T05:58:30;3.70;99.90
20141;DHT22;10231;47.702;9.826;2023-04-03T06:00:55;3.60;99.90
20141;DHT22;10231;47.702;9.826;2023-04-03T06:03:21;3.60;99.90
20141;DHT22;10231;47.702;9.826;2023-04-03T06:05:47;3.60;99.90
20141;DHT22;10231;47.702;9.826;2023-04-03T06:08:13;3.70;99.90
20141;DHT22;10231;47.702;9.826;2023-04-03T06:10:39;3.70;99.90
20141;DHT22;10231;47.702;9.826;2023-04-03T06:13:05;3.70;99.90
20141;DHT22;10231;47.702;9.826;2023-04-03T06:15:31;3.70;99.90
20141;DHT22;10231;47.702;9.826;2023-04-03T06:17:57;3.70;99.90
20141;DHT22;10231;47.702;9.826;2023-04-03T06:20:22;3.60;99.90
20141;DHT22;10231;47.702;9.826;2023-04-03T06:22:48;3.60;99.90
20141;DHT22;10231;47.702;9.826;2023-04-03T06:25:14;3.60;99.90
20141;DHT22;10231;47.702;9.826;2023-04-03T06:27:39;3.70;99.90
20141;DHT22;10231;47.702;9.826;2023-04-03T06:30:06;3.70;99.90
20141;DHT22;10231;47.702;9.826;2023-04-03T06:32:32;3.70;99.90
20141;DHT22;10231;47.702;9.826;2023-04-03T06:34:58;3.70;99.90
20141;DHT22;10231;47.702;9.826;2023-04-03T06:37:24;3.70;99.90
20141;DHT22;10231;47.702;9.826;2023-04-03T06:39:54;3.70;99.90
20141;DHT22;10231;47.702;9.826;2023-04-03T06:42:20;3.80;99.90
20141;DHT22;10231;47.702;9.826;2023-04-03T06:44:46;3.80;99.90
20141;DHT22;10231;47.702;9.826;2023-04-03T06:47:13;3.80;99.90
20141;DHT22;10231;47.702;9.826;2023-04-03T06:49:39;3.90;99.90
20141;DHT22;10231;47.702;9.826;2023-04-03T06:52:05;3.80;99.90
20141;DHT22;10231;47.702;9.826;2023-04-03T06:54:31;3.80;99.90
20141;DHT22;10231;47.702;9.826;2023-04-03T06:56:57;3.80;99.90
20141;DHT22;10231;47.702;9.826;2023-04-03T06:59:23;3.80;99.90
20141;DHT22;10231;47.702;9.826;2023-04-03T07:01:49;3.80;99.90
20141;DHT22;10231;47.702;9.826;2023-04-03T07:04:14;3.80;99.90
20141;DHT22;10231;47.702;9.826;2023-04-03T07:06:40;3.90;99.90
20141;DHT22;10231;47.702;9.826;2023-04-03T07:09:08;3.90;99.90
20141;DHT22;10231;47.702;9.826;2023-04-03T07:11:34;3.90;99.90
20141;DHT22;10231;47.702;9.826;2023-04-03T07:14:00;3.90;99.90
20141;DHT22;10231;47.702;9.826;2023-04-03T07:16:25;3.90;99.90
20141;DHT22;10231;47.702;9.826;2023-04-03T07:18:51;3.90;99.90
20141;DHT22;10231;47.702;9.826;2023-04-03T07:21:16;3.90;99.90
20141;DHT22;10231;47.702;9.826;2023-04-03T07:23:42;3.90;99.90
20141;DHT22;10231;47.702;9.826;2023-04-03T07:26:08;4.00;99.90
20141;DHT22;10231;47.702;9.826;2023-04-03T07:28:34;4.00;99.90
20141;DHT22;10231;47.702;9.826;2023-04-03T07:31:06;4.00;99.90
20141;DHT22;10231;47.702;9.826;2023-04-03T07:33:34;4.00;99.90
20141;DHT22;10231;47.702;9.826;2023-04-03T07:36:01;4.10;99.90
20141;DHT22;10231;47.702;9.826;2023-04-03T07:38:27;4.20;99.90
20141;DHT22;10231;47.702;9.826;2023-04-03T07:40:53;4.20;99.90
20141;DHT22;10231;47.702;9.826;2023-04-03T07:43:20;4.10;99.90
20141;DHT22;10231;47.702;9.826;2023-04-03T07:45:46;4.20;99.90
20141;DHT22;10231;47.702;9.826;2023-04-03T07:48:15;4.20;99.90
20141;DHT22;10231;47.702;9.826;2023-04-03T07:50:41;4.20;99.90
20141;DHT22;10231;47.702;9.826;2023-04-03T07:53:07;4.20;99.90
20141;DHT22;10231;47.702;9.826;2023-04-03T07:55:33;4.30;99.90
20141;DHT22;10231;47.702;9.826;2023-04-03T07:57:59;4.40;99.90
20141;DHT22;10231;47.702;9.826;2023-04-03T08:00:24;4.30;99.90
20141;DHT22;10231;47.702;9.826;2023-04-03T08:02:50;4.40;99.90
20141;DHT22;10231;47.702;9.826;2023-04-03T08:05:20;4.40;99.90
20141;DHT22;10231;47.702;9.826;2023-04-03T08:07:46;4.40;99.90
20141;DHT22;10231;47.702;9.826;2023-04-03T08:10:12;4.40;99.90
20141;DHT22;10231;47.702;9.826;2023-04-03T08:12:38;4.40;99.90
20141;DHT22;10231;47.702;9.826;2023-04-03T08:15:04;4.50;99.90
20141;DHT22;10231;47.702;9.826;2023-04-03T08:17:30;4.50;99.90
20141;DHT22;10231;47.702;9.826;2023-04-03T08:19:56;4.60;99.90
20141;DHT22;10231;47.702;9.826;2023-04-03T08:22:21;4.60;99.90
20141;DHT22;10231;47.702;9.826;2023-04-03T08:24:47;4.70;99.90
20141;DHT22;10231;47.702;9.826;2023-04-03T08:27:12;4.70;99.90
20141;DHT22;10231;47.702;9.826;2023-04-03T08:29:38;4.70;99.90
20141;DHT22;10231;47.702;9.826;2023-04-03T08:32:05;4.80;99.90
20141;DHT22;10231;47.702;9.826;2023-04-03T08:34:30;4.70;99.90
20141;DHT22;10231;47.702;9.826;2023-04-03T08:37:00;4.80;99.90
20141;DHT22;10231;47.702;9.826;2023-04-03T08:39:25;4.80;99.90
20141;DHT22;10231;47.702;9.826;2023-04-03T08:41:51;4.90;99.90
20141;DHT22;10231;47.702;9.826;2023-04-03T08:44:31;4.90;99.90
20141;DHT22;10231;47.702;9.826;2023-04-03T08:49:48;4.90;99.90
20141;DHT22;10231;47.702;9.826;2023-04-03T08:55:24;5.10;99.90
20141;DHT22;10231;47.702;9.826;2023-04-03T08:58:04;5.10;99.90
20141;DHT22;10231;47.702;9.826;2023-04-03T09:00:44;5.20;99.90
20141;DHT22;10231;47.702;9.826;2023-04-03T09:03:16;5.20;99.90
20141;DHT22;10231;47.702;9.826;2023-04-03T09:06:05;5.20;99.90
20141;DHT22;10231;47.702;9.826;2023-04-03T09:16:56;5.20;99.90
20141;DHT22;10231;47.702;9.826;2023-04-03T09:22:28;5.20;99.90
20141;DHT22;10231;47.702;9.826;2023-04-03T09:25:00;5.20;99.90
20141;DHT22;10231;47.702;9.826;2023-04-03T09:27:27;5.20;99.90
20141;DHT22;10231;47.702;9.826;2023-04-03T09:29:55;5.20;99.90
20141;DHT22;10231;47.702;9.826;2023-04-03T09:32:30;5.20;99.90
20141;DHT22;10231;47.702;9.826;2023-04-03T09:35:15;5.20;99.90
20141;DHT22;10231;47.702;9.826;2023-04-03T09:37:43;5.20;99.90
20141;DHT22;10231;47.702;9.826;2023-04-03T09:40:41;5.30;99.90
20141;DHT22;10231;47.702;9.826;2023-04-03T09:43:31;5.30;99.90
20141;DHT22;10231;47.702;9.826;2023-04-03T09:46:28;5.30;99.90
20141;DHT22;10231;47.702;9.826;2023-04-03T09:49:03;5.30;99.90
20141;DHT22;10231;47.702;9.826;2023-04-03T09:51:30;5.20;99.90
20141;DHT22;10231;47.702;9.826;2023-04-03T09:53:57;5.30;99.90
20141;DHT22;10231;47.702;9.826;2023-04-03T09:56:25;5.40;99.90
20141;DHT22;10231;47.702;9.826;2023-04-03T09:59:06;5.40;99.90
20141;DHT22;10231;47.702;9.826;2023-04-03T10:01:35;5.50;99.90
20141;DHT22;10231;47.702;9.826;2023-04-03T10:04:15;5.60;99.90
20141;DHT22;10231;47.702;9.826;2023-04-03T10:06:46;5.70;99.90
20141;DHT22;10231;47.702;9.826;2023-04-03T10:09:32;5.70;99.90
20141;DHT22;10231;47.702;9.826;2023-04-03T10:12:09;5.70;99.90
20141;DHT22;10231;47.702;9.826;2023-04-03T10:14:55;5.80;99.90
20141;DHT22;10231;47.702;9.826;2023-04-03T10:20:26;5.90;99.90
20141;DHT22;10231;47.702;9.826;2023-04-03T10:25:51;6.20;99.90
20141;DHT22;10231;47.702;9.826;2023-04-03T10:28:45;6.20;99.90
20141;DHT22;10231;47.702;9.826;2023-04-03T10:34:35;6.40;99.90
20141;DHT22;10231;47.702;9.826;2023-04-03T10:37:18;6.40;99.90
20141;DHT22;10231;47.702;9.826;2023-04-03T10:56:22;7.00;99.90
20141;DHT22;10231;47.702;9.826;2023-04-03T10:58:58;7.00;99.90
20141;DHT22;10231;47.702;9.826;2023-04-03T11:01:31;7.00;99.90
20141;DHT22;10231;47.702;9.826;2023-04-03T11:03:59;7.00;99.90
20141;DHT22;10231;47.702;9.826;2023-04-03T11:06:31;7.00;99.90
20141;DHT22;10231;47.702;9.826;2023-04-03T11:09:07;7.00;99.90
20141;DHT22;10231;47.702;9.826;2023-04-03T11:11:40;6.90;99.90
20141;DHT22;10231;47.702;9.826;2023-04-03T11:14:17;7.00;99.90
20141;DHT22;10231;47.702;9.826;2023-04-03T11:16:48;7.00;99.90
20141;DHT22;10231;47.702;9.826;2023-04-03T11:19:22;7.00;99.90
20141;DHT22;10231;47.702;9.826;2023-04-03T11:21:57;7.00;99.90
20141;DHT22;10231;47.702;9.826;2023-04-03T11:24:28;7.10;99.90
20141;DHT22;10231;47.702;9.826;2023-04-03T11:26:56;7.10;99.90
20141;DHT22;10231;47.702;9.826;2023-04-03T11:29:29;7.10;99.90
20141;DHT22;10231;47.702;9.826;2023-04-03T11:32:24;7.20;99.90
20141;DHT22;10231;47.702;9.826;2023-04-03T11:34:56;7.30;99.90
20141;DHT22;10231;47.702;9.826;2023-04-03T11:37:35;7.30;99.90
20141;DHT22;10231;47.702;9.826;2023-04-03T11:42:52;7.30;99.90
20141;DHT22;10231;47.702;9.826;2023-04-03T11:50:43;7.20;99.90
20141;DHT22;10231;47.702;9.826;2023-04-03T11:55:52;7.20;99.90
20141;DHT22;10231;47.702;9.826;2023-04-03T11:58:38;7.20;99.90
20141;DHT22;10231;47.702;9.826;2023-04-03T12:01:10;7.30;99.90
20141;DHT22;10231;47.702;9.826;2023-04-03T12:13:34;7.20;99.90
20141;DHT22;10231;47.702;9.826;2023-04-03T12:16:00;7.30;99.90
20141;DHT22;10231;47.702;9.826;2023-04-03T12:32:12;7.40;99.90
20141;DHT22;10231;47.702;9.826;2023-04-03T12:41:38;7.50;99.90
20141;DHT22;10231;47.702;9.826;2023-04-03T12:46:38;7.50;99.90
20141;DHT22;10231;47.702;9.826;2023-04-03T12:51:54;7.40;99.90
20141;DHT22;10231;47.702;9.826;2023-04-03T12:54:27;7.40;99.90
20141;DHT22;10231;47.702;9.826;2023-04-03T12:57:18;7.50;99.90
20141;DHT22;10231;47.702;9.826;2023-04-03T12:59:44;7.50;99.90
20141;DHT22;10231;47.702;9.826;2023-04-03T13:02:27;7.30;99.90
20141;DHT22;10231;47.702;9.826;2023-04-03T13:04:56;7.40;99.90
20141;DHT22;10231;47.702;9.826;2023-04-03T13:07:33;7.40;99.90
20141;DHT22;10231;47.702;9.826;2023-04-03T13:12:52;7.40;99.90
20141;DHT22;10231;47.702;9.826;2023-04-03T13:15:30;7.40;99.90
20141;DHT22;10231;47.702;9.826;2023-04-03T13:18:05;7.50;99.90
20141;DHT22;10231;47.702;9.826;2023-04-03T13:20:34;7.50;99.90
20141;DHT22;10231;47.702;9.826;2023-04-03T13:23:08;7.50;99.90
20141;DHT22;10231;47.702;9.826;2023-04-03T13:25:41;7.50;99.90
20141;DHT22;10231;47.702;9.826;2023-04-03T13:28:12;7.50;99.90
20141;DHT22;10231;47.702;9.826;2023-04-03T13:30:39;7.50;99.90
20141;DHT22;10231;47.702;9.826;2023-04-03T13:33:21;7.50;99.90
20141;DHT22;10231;47.702;9.826;2023-04-03T13:35:47;7.40;99.90
20141;DHT22;10231;47.702;9.826;2023-04-03T13:40:57;7.30;99.90
20141;DHT22;10231;47.702;9.826;2023-04-03T13:43:26;7.20;99.90
20141;DHT22;10231;47.702;9.826;2023-04-03T13:48:38;7.20;99.90
20141;DHT22;10231;47.702;9.826;2023-04-03T13:53:46;7.10;99.90
20141;DHT22;10231;47.702;9.826;2023-04-03T13:59:00;7.20;99.90
20141;DHT22;10231;47.702;9.826;2023-04-03T14:04:17;7.20;99.90
20141;DHT22;10231;47.702;9.826;2023-04-03T14:06:44;7.20;99.90
20141;DHT22;10231;47.702;9.826;2023-04-03T14:09:10;7.10;99.90
20141;DHT22;10231;47.702;9.826;2023-04-03T14:11:36;7.10;99.90
20141;DHT22;10231;47.702;9.826;2023-04-03T14:14:09;7.00;99.90
20141;DHT22;10231;47.702;9.826;2023-04-03T14:16:39;7.00;99.90
20141;DHT22;10231;47.702;9.826;2023-04-03T14:19:06;6.90;99.90
20141;DHT22;10231;47.702;9.826;2023-04-03T14:21:31;7.00;99.90
20141;DHT22;10231;47.702;9.826;2023-04-03T14:23:57;6.90;99.90
20141;DHT22;10231;47.702;9.826;2023-04-03T14:26:24;6.90;99.90
20141;DHT22;10231;47.702;9.826;2023-04-03T14:28:53;6.90;99.90
20141;DHT22;10231;47.702;9.826;2023-04-03T14:31:19;6.90;99.90
20141;DHT22;10231;47.702;9.826;2023-04-03T14:33:46;6.90;99.90
20141;DHT22;10231;47.702;9.826;2023-04-03T14:36:17;6.90;99.90
20141;DHT22;10231;47.702;9.826;2023-04-03T14:38:44;6.90;99.90
20141;DHT22;10231;47.702;9.826;2023-04-03T14:41:15;6.90;99.90
20141;DHT22;10231;47.702;9.826;2023-04-03T14:43:41;6.90;99.90
20141;DHT22;10231;47.702;9.826;2023-04-03T14:46:19;6.90;99.90
20141;DHT22;10231;47.702;9.826;2023-04-03T14:48:45;6.90;99.90
20141;DHT22;10231;47.702;9.826;2023-04-03T14:51:14;6.90;99.90
20141;DHT22;10231;47.702;9.826;2023-04-03T14:53:41;6.90;99.90
20141;DHT22;10231;47.702;9.826;2023-04-03T14:56:25;6.90;99.90
20141;DHT22;10231;47.702;9.826;2023-04-03T14:59:00;6.90;99.90
20141;DHT22;10231;47.702;9.826;2023-04-03T15:01:37;6.80;99.90
20141;DHT22;10231;47.702;9.826;2023-04-03T15:04:14;6.80;99.90
20141;DHT22;10231;47.702;9.826;2023-04-03T15:06:45;6.80;99.90
20141;DHT22;10231;47.702;9.826;2023-04-03T15:09:30;6.70;99.90
20141;DHT22;10231;47.702;9.826;2023-04-03T15:11:59;6.70;99.90
20141;DHT22;10231;47.702;9.826;2023-04-03T15:14:25;6.70;99.90
20141;DHT22;10231;47.702;9.826;2023-04-03T15:16:55;6.70;99.90
20141;DHT22;10231;47.702;9.826;2023-04-03T15:19:29;6.70;99.90
20141;DHT22;10231;47.702;9.826;2023-04-03T15:21:58;6.70;99.90
20141;DHT22;10231;47.702;9.826;2023-04-03T15:24:25;6.70;99.90
20141;DHT22;10231;47.702;9.826;2023-04-03T15:26:52;6.60;99.90
20141;DHT22;10231;47.702;9.826;2023-04-03T15:29:18;6.60;99.90
20141;DHT22;10231;47.702;9.826;2023-04-03T15:31:47;6.60;99.90
20141;DHT22;10231;47.702;9.826;2023-04-03T15:34:18;6.70;99.90
20141;DHT22;10231;47.702;9.826;2023-04-03T15:36:51;6.70;99.90
20141;DHT22;10231;47.702;9.826;2023-04-03T15:39:24;6.60;99.90
20141;DHT22;10231;47.702;9.826;2023-04-03T15:41:54;6.50;99.90
20141;DHT22;10231;47.702;9.826;2023-04-03T15:44:26;6.60;99.90
20141;DHT22;10231;47.702;9.826;2023-04-03T15:46:56;6.40;99.90
20141;DHT22;10231;47.702;9.826;2023-04-03T15:49:25;6.40;99.90
20141;DHT22;10231;47.702;9.826;2023-04-03T15:51:54;6.30;99.90
20141;DHT22;10231;47.702;9.826;2023-04-03T15:54:21;6.30;99.90
20141;DHT22;10231;47.702;9.826;2023-04-03T15:56:49;6.20;99.90
20141;DHT22;10231;47.702;9.826;2023-04-03T15:59:19;6.20;99.90
20141;DHT22;10231;47.702;9.826;2023-04-03T16:01:49;6.10;99.90
20141;DHT22;10231;47.702;9.826;2023-04-03T16:04:21;6.10;99.90
20141;DHT22;10231;47.702;9.826;2023-04-03T16:06:52;6.10;99.90
20141;DHT22;10231;47.702;9.826;2023-04-03T16:09:24;6.10;99.90
20141;DHT22;10231;47.702;9.826;2023-04-03T16:11:55;6.10;99.90
20141;DHT22;10231;47.702;9.826;2023-04-03T16:14:22;6.10;99.90
20141;DHT22;10231;47.702;9.826;2023-04-03T16:16:55;6.00;99.90
20141;DHT22;10231;47.702;9.826;2023-04-03T16:19:25;6.00;99.90
20141;DHT22;10231;47.702;9.826;2023-04-03T16:21:54;5.90;99.90
20141;DHT22;10231;47.702;9.826;2023-04-03T16:24:22;5.90;99.90
20141;DHT22;10231;47.702;9.826;2023-04-03T16:26:49;5.90;99.90
20141;DHT22;10231;47.702;9.826;2023-04-03T16:29:22;5.90;99.90
20141;DHT22;10231;47.702;9.826;2023-04-03T16:31:52;5.90;99.90
20141;DHT22;10231;47.702;9.826;2023-04-03T16:34:23;5.90;99.90
20141;DHT22;10231;47.702;9.826;2023-04-03T16:36:53;5.90;99.90
20141;DHT22;10231;47.702;9.826;2023-04-03T16:39:23;5.90;99.90
20141;DHT22;10231;47.702;9.826;2023-04-03T16:41:50;5.90;99.90
20141;DHT22;10231;47.702;9.826;2023-04-03T16:44:19;5.90;99.90
20141;DHT22;10231;47.702;9.826;2023-04-03T16:46:47;5.90;99.90
20141;DHT22;10231;47.702;9.826;2023-04-03T16:49:14;5.90;99.90
20141;DHT22;10231;47.702;9.826;2023-04-03T16:51:44;5.90;99.90
20141;DHT22;10231;47.702;9.826;2023-04-03T16:54:21;5.90;99.90
20141;DHT22;10231;47.702;9.826;2023-04-03T16:56:53;5.80;99.90
20141;DHT22;10231;47.702;9.826;2023-04-03T16:59:26;5.80;99.90
20141;DHT22;10231;47.702;9.826;2023-04-03T17:01:57;5.80;99.90
20141;DHT22;10231;47.702;9.826;2023-04-03T17:04:30;5.90;99.90
20141;DHT22;10231;47.702;9.826;2023-04-03T17:07:00;5.90;99.90
20141;DHT22;10231;47.702;9.826;2023-04-03T17:09:38;5.90;99.90
20141;DHT22;10231;47.702;9.826;2023-04-03T17:12:12;5.80;99.90
20141;DHT22;10231;47.702;9.826;2023-04-03T17:14:42;5.80;99.90
20141;DHT22;10231;47.702;9.826;2023-04-03T17:17:08;5.70;99.90
20141;DHT22;10231;47.702;9.826;2023-04-03T17:19:37;5.80;99.90
20141;DHT22;10231;47.702;9.826;2023-04-03T17:22:05;5.80;99.90
20141;DHT22;10231;47.702;9.826;2023-04-03T17:24:33;5.70;99.90
20141;DHT22;10231;47.702;9.826;2023-04-03T17:27:03;5.70;99.90
20141;DHT22;10231;47.702;9.826;2023-04-03T17:29:30;5.70;99.90
20141;DHT22;10231;47.702;9.826;2023-04-03T17:32:01;5.60;99.90
20141;DHT22;10231;47.702;9.826;2023-04-03T17:38:18;5.50;99.90
20141;DHT22;10231;47.702;9.826;2023-04-03T17:41:06;5.40;99.90
20141;DHT22;10231;47.702;9.826;2023-04-03T17:43:38;5.40;99.90
20141;DHT22;10231;47.702;9.826;2023-04-03T17:46:22;5.30;99.90
20141;DHT22;10231;47.702;9.826;2023-04-03T17:48:56;5.20;99.90
20141;DHT22;10231;47.702;9.826;2023-04-03T17:51:24;5.20;99.90
20141;DHT22;10231;47.702;9.826;2023-04-03T17:53:50;5.20;99.90
20141;DHT22;10231;47.702;9.826;2023-04-03T17:56:18;5.20;99.90